Time;durP1;ratioP1;P1;durP2;ratioP2;P2;SDS_P1;SDS_P2;PMS_P1;PMS_P2;Temp;Humidity;BMP_temperature;BMP_pressure;BME280_temperature;BME280_humidity;BME280_pressure;Samples;Min_cycle;Max_cycle;Signal;HPM_P1;HPM_P2
2021/03/24 00:02:08;;;;;;;;;;;15.60;57.20;;;;;;4938368;29;19907;-60
2021/03/24 00:04:34;;;;;;;;;;;15.40;57.10;;;;;;4938309;29;20361;-60
2021/03/24 00:06:59;;;;;;;;;;;15.40;57.10;;;;;;4937977;29;20397;-60
2021/03/24 00:09:25;;;;;;;;;;;15.30;57.10;;;;;;4937737;29;19919;-60
2021/03/24 00:11:50;;;;;;;;;;;15.30;57.10;;;;;;4937639;28;19984;-60
2021/03/24 00:14:15;;;;;;;;;;;15.30;57.10;;;;;;4938188;29;20321;-60
2021/03/24 00:16:41;;;;;;;;;;;15.30;57.10;;;;;;4937851;29;19954;-60
2021/03/24 00:19:07;;;;;;;;;;;15.30;57.10;;;;;;4938117;29;19907;-61
2021/03/24 00:21:32;;;;;;;;;;;15.30;57.20;;;;;;4937717;29;20397;-60
2021/03/24 00:23:58;;;;;;;;;;;15.20;57.20;;;;;;4937871;29;20320;-60
2021/03/24 00:26:23;;;;;;;;;;;15.20;57.20;;;;;;4937656;29;20384;-60
2021/03/24 00:28:52;;;;;;;;;;;15.20;57.20;;;;;;4937836;29;19918;-58
2021/03/24 00:31:18;;;;;;;;;;;15.20;57.30;;;;;;4937162;29;20001;-59
2021/03/24 00:33:43;;;;;;;;;;;15.20;57.20;;;;;;4937830;29;19938;-60
2021/03/24 00:36:09;;;;;;;;;;;15.20;57.20;;;;;;4937602;29;19910;-60
2021/03/24 00:38:34;;;;;;;;;;;14.90;57.00;;;;;;4937761;29;19913;-59
2021/03/24 00:41:00;;;;;;;;;;;15.00;57.10;;;;;;4937540;29;20365;-60
2021/03/24 00:43:25;;;;;;;;;;;15.10;57.10;;;;;;4937693;29;19958;-60
2021/03/24 00:45:51;;;;;;;;;;;15.10;57.10;;;;;;4937711;29;20020;-59
2021/03/24 00:48:24;;;;;;;;;;;15.10;57.10;;;;;;4937262;29;19911;-60
2021/03/24 00:50:50;;;;;;;;;;;15.10;57.10;;;;;;4937862;29;19966;-60
2021/03/24 00:53:15;;;;;;;;;;;15.20;57.30;;;;;;4937530;29;19910;-60
2021/03/24 00:55:41;;;;;;;;;;;15.10;57.20;;;;;;4937229;29;19917;-60
2021/03/24 00:58:06;;;;;;;;;;;15.10;57.20;;;;;;4937325;29;19910;-60
2021/03/24 01:00:34;;;;;;;;;;;15.10;57.20;;;;;;4937183;29;19914;-60
2021/03/24 01:03:00;;;;;;;;;;;15.10;57.20;;;;;;4937369;29;19911;-60
2021/03/24 01:05:25;;;;;;;;;;;15.00;57.30;;;;;;4937096;29;19981;-60
2021/03/24 01:07:51;;;;;;;;;;;15.00;57.20;;;;;;4937047;29;19911;-60
2021/03/24 01:10:22;;;;;;;;;;;15.00;57.20;;;;;;4936703;28;19926;-59
2021/03/24 01:12:48;;;;;;;;;;;15.00;57.10;;;;;;4943377;29;19906;-60
2021/03/24 01:15:14;;;;;;;;;;;15.00;57.20;;;;;;4936820;29;20054;-60
2021/03/24 01:17:40;;;;;;;;;;;15.00;57.20;;;;;;4936902;29;19918;-60
2021/03/24 01:20:06;;;;;;;;;;;15.00;57.40;;;;;;4937038;29;19907;-59
2021/03/24 01:22:31;;;;;;;;;;;15.00;57.30;;;;;;4936780;29;19910;-60
2021/03/24 01:24:58;;;;;;;;;;;14.90;57.30;;;;;;4937044;29;19914;-59
2021/03/24 01:27:24;;;;;;;;;;;15.00;57.30;;;;;;4936985;29;19907;-60
2021/03/24 01:29:50;;;;;;;;;;;15.00;57.30;;;;;;4936662;29;19921;-58
2021/03/24 01:32:15;;;;;;;;;;;15.00;57.30;;;;;;4936925;29;19907;-60
2021/03/24 01:34:41;;;;;;;;;;;14.90;57.30;;;;;;4936873;29;19911;-59
2021/03/24 01:37:06;;;;;;;;;;;14.90;57.40;;;;;;4936501;29;20294;-58
2021/03/24 01:39:32;;;;;;;;;;;14.90;57.30;;;;;;4936469;29;19907;-59
2021/03/24 01:41:57;;;;;;;;;;;14.70;57.30;;;;;;4918614;29;19914;-59
2021/03/24 01:44:22;;;;;;;;;;;14.90;56.80;;;;;;4936658;29;19913;-60
2021/03/24 01:46:48;;;;;;;;;;;14.90;57.40;;;;;;4936350;29;19938;-60
2021/03/24 01:49:16;;;;;;;;;;;14.90;57.40;;;;;;4936316;29;19919;-60
2021/03/24 01:51:42;;;;;;;;;;;15.20;57.50;;;;;;4936679;29;19915;-60
2021/03/24 01:54:08;;;;;;;;;;;14.70;57.30;;;;;;4936368;29;20422;-60
2021/03/24 01:56:34;;;;;;;;;;;14.90;57.40;;;;;;4936291;29;20046;-60
2021/03/24 01:59:00;;;;;;;;;;;14.80;57.40;;;;;;4936097;29;19956;-60
2021/03/24 02:01:26;;;;;;;;;;;15.70;57.90;;;;;;4936070;29;19911;-59
2021/03/24 02:03:52;;;;;;;;;;;14.60;57.30;;;;;;4936117;29;20001;-60
2021/03/24 02:06:24;;;;;;;;;;;14.70;57.40;;;;;;4936097;29;19947;-60
2021/03/24 02:08:52;;;;;;;;;;;14.90;57.40;;;;;;4935772;29;19919;-60
2021/03/24 02:11:22;;;;;;;;;;;14.80;57.40;;;;;;4935334;29;19919;-61
2021/03/24 02:13:51;;;;;;;;;;;14.80;57.50;;;;;;4935672;29;19913;-60
2021/03/24 02:16:25;;;;;;;;;;;14.70;57.40;;;;;;4935924;29;19911;-60
2021/03/24 02:18:52;;;;;;;;;;;14.80;57.40;;;;;;4935946;29;19917;-60
2021/03/24 02:21:26;;;;;;;;;;;14.80;57.50;;;;;;4935746;29;19954;-61
2021/03/24 02:24:00;;;;;;;;;;;14.80;57.40;;;;;;4935678;29;19969;-60
2021/03/24 02:26:31;;;;;;;;;;;14.80;57.50;;;;;;4935858;29;19911;-60
2021/03/24 02:28:58;;;;;;;;;;;14.70;57.50;;;;;;4935420;29;19985;-60
2021/03/24 02:31:25;;;;;;;;;;;14.60;57.40;;;;;;4935445;29;19907;-60
2021/03/24 02:33:52;;;;;;;;;;;14.70;58.20;;;;;;4935715;29;19933;-60
2021/03/24 02:36:19;;;;;;;;;;;14.60;57.50;;;;;;4935665;29;20330;-60
2021/03/24 02:38:45;;;;;;;;;;;14.70;57.50;;;;;;4935282;29;20358;-61
2021/03/24 02:41:12;;;;;;;;;;;14.60;57.50;;;;;;4935565;29;19957;-59
2021/03/24 02:43:38;;;;;;;;;;;14.70;57.60;;;;;;4935430;29;20353;-59
2021/03/24 02:46:05;;;;;;;;;;;14.90;57.70;;;;;;4935174;29;19914;-60
2021/03/24 02:48:33;;;;;;;;;;;14.60;57.60;;;;;;4935138;29;20033;-60
2021/03/24 02:51:00;;;;;;;;;;;14.60;57.60;;;;;;4935186;29;19958;-60
2021/03/24 02:53:28;;;;;;;;;;;14.40;57.50;;;;;;4934879;29;20370;-59
2021/03/24 02:55:55;;;;;;;;;;;14.60;57.60;;;;;;4935126;29;19907;-60
2021/03/24 02:58:21;;;;;;;;;;;14.60;57.60;;;;;;4935323;29;19965;-60
2021/03/24 03:00:47;;;;;;;;;;;14.60;57.60;;;;;;4935281;29;20335;-60
2021/03/24 03:03:15;;;;;;;;;;;14.60;57.60;;;;;;4935254;29;19907;-60
2021/03/24 03:05:41;;;;;;;;;;;14.60;57.60;;;;;;4934985;29;19954;-60
2021/03/24 03:08:12;;;;;;;;;;;14.60;57.70;;;;;;4934960;29;19914;-59
2021/03/24 03:10:55;;;;;;;;;;;14.60;57.50;;;;;;4934695;29;19962;-60
2021/03/24 03:13:31;;;;;;;;;;;14.60;57.60;;;;;;4935261;29;19915;-60
2021/03/24 03:16:15;;;;;;;;;;;14.50;57.50;;;;;;4917951;29;19950;-60
2021/03/24 03:18:49;;;;;;;;;;;14.60;57.50;;;;;;4934929;29;19911;-60
2021/03/24 03:21:17;;;;;;;;;;;14.50;57.50;;;;;;4934899;29;20357;-61
2021/03/24 03:23:42;;;;;;;;;;;14.40;57.50;;;;;;4935027;29;20353;-60
2021/03/24 03:26:11;;;;;;;;;;;14.40;57.50;;;;;;4917789;29;19913;-60
2021/03/24 03:28:37;;;;;;;;;;;14.30;57.50;;;;;;4934710;29;19919;-60
2021/03/24 03:31:06;;;;;;;;;;;15.10;57.90;;;;;;4934826;29;20397;-59
2021/03/24 03:33:33;;;;;;;;;;;14.90;57.80;;;;;;4935025;29;19918;-60
2021/03/24 03:35:59;;;;;;;;;;;14.50;57.60;;;;;;4934782;29;19911;-60
2021/03/24 03:38:26;;;;;;;;;;;14.50;57.60;;;;;;4934996;29;19922;-61
2021/03/24 03:40:55;;;;;;;;;;;14.40;57.60;;;;;;4934694;29;20433;-60
2021/03/24 03:43:21;;;;;;;;;;;14.50;57.60;;;;;;4917731;29;19907;-60
2021/03/24 03:45:48;;;;;;;;;;;14.40;57.60;;;;;;4934967;29;19910;-60
2021/03/24 03:48:15;;;;;;;;;;;14.40;57.60;;;;;;4934627;29;19907;-60
2021/03/24 03:50:42;;;;;;;;;;;14.40;57.60;;;;;;4934837;29;20435;-60
2021/03/24 03:53:07;;;;;;;;;;;14.20;57.50;;;;;;4934638;29;20351;-60
2021/03/24 03:55:43;;;;;;;;;;;14.20;57.60;;;;;;4934682;29;19907;-61
2021/03/24 03:58:24;;;;;;;;;;;14.40;57.60;;;;;;4917563;29;19906;-60
2021/03/24 04:01:11;;;;;;;;;;;14.40;57.60;;;;;;4934648;29;20386;-60
2021/03/24 04:03:46;;;;;;;;;;;14.40;57.60;;;;;;4934672;29;19954;-59
2021/03/24 04:06:18;;;;;;;;;;;14.40;57.60;;;;;;4937313;29;20001;-60
2021/03/24 04:08:44;;;;;;;;;;;14.40;57.60;;;;;;4937985;29;20276;-60
2021/03/24 04:11:10;;;;;;;;;;;14.30;57.60;;;;;;4937721;29;20383;-59
2021/03/24 04:13:40;;;;;;;;;;;14.60;58.50;;;;;;4938174;29;20343;-60
2021/03/24 04:16:05;;;;;;;;;;;14.40;57.70;;;;;;4938163;29;20326;-60
2021/03/24 04:18:36;;;;;;;;;;;15.10;58.10;;;;;;4937766;29;19911;-60
2021/03/24 04:21:02;;;;;;;;;;;14.30;57.60;;;;;;4937778;29;19953;-61
2021/03/24 04:23:31;;;;;;;;;;;14.40;57.70;;;;;;4937709;29;19914;-60
2021/03/24 04:26:07;;;;;;;;;;;14.30;57.70;;;;;;4937727;29;19917;-59
2021/03/24 04:28:35;;;;;;;;;;;14.30;57.70;;;;;;4937537;29;20386;-60
2021/03/24 04:31:03;;;;;;;;;;;14.30;57.70;;;;;;4937592;29;20450;-60
2021/03/24 04:33:28;;;;;;;;;;;14.30;57.70;;;;;;4937544;29;19946;-59
2021/03/24 04:35:55;;;;;;;;;;;14.30;57.70;;;;;;4937661;29;19957;-61
2021/03/24 04:38:31;;;;;;;;;;;14.20;57.70;;;;;;4937703;29;19907;-60
2021/03/24 04:41:00;;;;;;;;;;;14.30;57.70;;;;;;4937646;29;19915;-59
2021/03/24 04:43:27;;;;;;;;;;;14.30;57.80;;;;;;4937682;29;19907;-60
2021/03/24 04:45:58;;;;;;;;;;;14.30;57.80;;;;;;4937360;29;19907;-60
2021/03/24 04:48:26;;;;;;;;;;;14.30;57.70;;;;;;4937462;29;19907;-59
2021/03/24 04:50:57;;;;;;;;;;;14.20;57.80;;;;;;4937223;29;19911;-60
2021/03/24 04:53:24;;;;;;;;;;;14.20;57.70;;;;;;4937350;29;19953;-60
2021/03/24 04:55:51;;;;;;;;;;;14.20;57.80;;;;;;4937453;29;19910;-61
2021/03/24 04:58:28;;;;;;;;;;;14.20;57.80;;;;;;4937323;29;20001;-60
2021/03/24 05:00:56;;;;;;;;;;;14.20;57.70;;;;;;4937165;29;19913;-60
2021/03/24 05:03:23;;;;;;;;;;;14.20;57.80;;;;;;4937023;29;20022;-61
2021/03/24 05:05:53;;;;;;;;;;;14.20;57.80;;;;;;4936987;29;20053;-60
2021/03/24 05:08:29;;;;;;;;;;;14.20;57.70;;;;;;4936853;29;19907;-60
2021/03/24 05:10:57;;;;;;;;;;;14.20;57.70;;;;;;4936665;29;19925;-60
2021/03/24 05:13:23;;;;;;;;;;;14.20;57.80;;;;;;4937166;29;19907;-60
2021/03/24 05:15:58;;;;;;;;;;;14.20;57.80;;;;;;4936467;29;20551;-60
2021/03/24 05:18:23;;;;;;;;;;;14.20;57.70;;;;;;4936271;29;19975;-60
2021/03/24 05:21:00;;;;;;;;;;;14.30;57.90;;;;;;4936935;29;20382;-61
2021/03/24 05:23:26;;;;;;;;;;;14.20;57.70;;;;;;4936806;29;19907;-60
2021/03/24 05:26:15;;;;;;;;;;;14.10;57.80;;;;;;4936726;29;19910;-60
2021/03/24 05:28:42;;;;;;;;;;;14.10;57.70;;;;;;4917939;29;19914;-60
2021/03/24 05:31:10;;;;;;;;;;;13.90;57.70;;;;;;4936894;29;19907;-60
2021/03/24 05:33:41;;;;;;;;;;;14.10;57.80;;;;;;4936444;29;20478;-60
2021/03/24 05:36:13;;;;;;;;;;;14.10;57.90;;;;;;4936816;29;19907;-59
2021/03/24 05:38:41;;;;;;;;;;;14.10;57.90;;;;;;4942892;29;19907;-59
2021/03/24 05:41:09;;;;;;;;;;;14.10;57.90;;;;;;4936342;29;19962;-59
2021/03/24 05:43:38;;;;;;;;;;;14.10;57.80;;;;;;4936378;29;19907;-60
2021/03/24 05:46:15;;;;;;;;;;;14.10;57.90;;;;;;4936304;29;19907;-59
2021/03/24 05:48:47;;;;;;;;;;;14.10;57.90;;;;;;4936145;29;19915;-60
2021/03/24 05:51:31;;;;;;;;;;;14.00;57.90;;;;;;4936381;29;19958;-60
2021/03/24 05:54:06;;;;;;;;;;;14.10;58.00;;;;;;4936342;29;19922;-61
2021/03/24 05:56:50;;;;;;;;;;;14.10;58.00;;;;;;4936137;29;19914;-60
2021/03/24 05:59:24;;;;;;;;;;;14.10;58.00;;;;;;4936441;29;19907;-60
2021/03/24 06:01:56;;;;;;;;;;;14.10;58.10;;;;;;4936365;29;20043;-60
2021/03/24 06:04:33;;;;;;;;;;;14.10;58.10;;;;;;4936023;29;19910;-60
2021/03/24 06:07:07;;;;;;;;;;;14.10;58.70;;;;;;4936059;29;19918;-59
2021/03/24 06:09:33;;;;;;;;;;;14.10;58.70;;;;;;4918813;29;20483;-59
2021/03/24 06:12:06;;;;;;;;;;;14.20;58.70;;;;;;4935420;29;19923;-61
2021/03/24 06:14:37;;;;;;;;;;;14.20;58.70;;;;;;4935900;29;20001;-58
2021/03/24 06:17:13;;;;;;;;;;;14.30;58.70;;;;;;4936156;29;19907;-61
2021/03/24 06:19:38;;;;;;;;;;;14.40;58.90;;;;;;4935880;29;20273;-61
2021/03/24 06:22:22;;;;;;;;;;;14.50;58.90;;;;;;4935864;29;19994;-61
2021/03/24 06:24:48;;;;;;;;;;;14.50;58.90;;;;;;4935643;29;19989;-60
2021/03/24 06:27:22;;;;;;;;;;;14.30;58.80;;;;;;4935512;29;19954;-61
2021/03/24 06:29:54;;;;;;;;;;;14.60;58.90;;;;;;4935415;29;19957;-61
2021/03/24 06:32:29;;;;;;;;;;;14.60;58.80;;;;;;4935566;29;20362;-61
2021/03/24 06:35:21;;;;;;;;;;;14.70;58.70;;;;;;4935403;29;19945;-61
2021/03/24 06:37:46;;;;;;;;;;;14.70;58.60;;;;;;4920035;29;19910;-61
2021/03/24 06:40:22;;;;;;;;;;;14.70;58.60;;;;;;4935588;29;20054;-61
2021/03/24 06:43:06;;;;;;;;;;;14.80;58.50;;;;;;4935345;29;19918;-60
2021/03/24 06:45:47;;;;;;;;;;;14.90;58.40;;;;;;4935422;29;19918;-60
2021/03/24 06:48:28;;;;;;;;;;;15.00;58.30;;;;;;4935202;29;20353;-61
2021/03/24 06:51:06;;;;;;;;;;;15.00;58.30;;;;;;4935228;29;19907;-60
2021/03/24 06:53:40;;;;;;;;;;;15.10;58.20;;;;;;4935129;29;19907;-60
2021/03/24 06:56:18;;;;;;;;;;;15.10;58.10;;;;;;4935154;29;19911;-60
2021/03/24 06:59:02;;;;;;;;;;;15.20;58.00;;;;;;4935117;29;19906;-60
2021/03/24 07:01:33;;;;;;;;;;;15.20;58.00;;;;;;4935434;29;19911;-61
2021/03/24 07:04:17;;;;;;;;;;;15.30;57.90;;;;;;4935441;29;20120;-61
2021/03/24 07:06:46;;;;;;;;;;;15.40;57.80;;;;;;4935303;29;19907;-61
2021/03/24 07:09:23;;;;;;;;;;;15.40;57.70;;;;;;4934875;29;19921;-59
2021/03/24 07:11:52;;;;;;;;;;;15.40;57.60;;;;;;4934599;28;20030;-58
2021/03/24 07:14:36;;;;;;;;;;;15.50;57.60;;;;;;4934989;29;19922;-58
2021/03/24 07:17:10;;;;;;;;;;;15.50;57.50;;;;;;4935121;29;19907;-59
2021/03/24 07:19:54;;;;;;;;;;;15.60;57.50;;;;;;4917703;29;19978;-58
2021/03/24 07:22:23;;;;;;;;;;;15.60;57.40;;;;;;4934973;29;19911;-58
2021/03/24 07:24:54;;;;;;;;;;;15.70;57.40;;;;;;4935004;29;19907;-56
2021/03/24 07:27:20;;;;;;;;;;;15.70;57.30;;;;;;4934812;29;20013;-57
2021/03/24 07:30:02;;;;;;;;;;;15.80;57.40;;;;;;4934859;29;20009;-58
2021/03/24 07:32:50;;;;;;;;;;;15.80;57.20;;;;;;4916048;29;20009;-57
2021/03/24 07:35:15;;;;;;;;;;;15.90;57.10;;;;;;4916007;29;20002;-54
2021/03/24 07:37:51;;;;;;;;;;;16.00;56.90;;;;;;4915991;29;19969;-55
2021/03/24 07:40:26;;;;;;;;;;;16.00;56.80;;;;;;4917043;29;20400;-53
2021/03/24 07:43:11;;;;;;;;;;;16.00;56.60;;;;;;4919681;29;19962;-57
2021/03/24 07:45:46;;;;;;;;;;;16.00;56.70;;;;;;4919254;29;19993;-56
2021/03/24 07:48:11;;;;;;;;;;;16.10;56.30;;;;;;4919510;29;20006;-57
2021/03/24 07:50:46;;;;;;;;;;;15.90;55.90;;;;;;4919455;29;20009;-57
2021/03/24 07:53:22;;;;;;;;;;;16.20;55.70;;;;;;4919349;29;19907;-57
2021/03/24 07:55:54;;;;;;;;;;;16.20;55.60;;;;;;4918973;29;19954;-56
2021/03/24 07:58:34;;;;;;;;;;;16.30;55.70;;;;;;4925050;29;19911;-57
2021/03/24 08:01:12;;;;;;;;;;;16.30;55.70;;;;;;4919128;29;19911;-57
2021/03/24 08:03:56;;;;;;;;;;;16.30;55.60;;;;;;4919024;29;19946;-57
2021/03/24 08:06:29;;;;;;;;;;;16.30;55.70;;;;;;4902028;29;19914;-57
2021/03/24 08:08:54;;;;;;;;;;;16.20;55.70;;;;;;4919150;29;19915;-57
2021/03/24 08:11:25;;;;;;;;;;;16.30;56.00;;;;;;4919196;29;19967;-57
2021/03/24 08:14:09;;;;;;;;;;;16.20;55.90;;;;;;4919102;29;19918;-57
2021/03/24 08:16:47;;;;;;;;;;;16.30;56.00;;;;;;4918937;29;19907;-57
2021/03/24 08:19:31;;;;;;;;;;;16.30;56.10;;;;;;4918837;29;19911;-57
2021/03/24 08:22:15;;;;;;;;;;;16.30;56.20;;;;;;4918821;29;19907;-57
2021/03/24 08:24:59;;;;;;;;;;;16.30;56.20;;;;;;4918809;29;19907;-57
2021/03/24 08:27:31;;;;;;;;;;;16.20;56.20;;;;;;4918726;29;19970;-56
2021/03/24 08:30:15;;;;;;;;;;;16.30;56.20;;;;;;4918719;29;19915;-54
2021/03/24 08:32:59;;;;;;;;;;;16.30;56.30;;;;;;4918911;29;19908;-56
2021/03/24 08:35:30;;;;;;;;;;;16.40;56.60;;;;;;4918749;29;19962;-56
2021/03/24 08:38:06;;;;;;;;;;;16.10;56.30;;;;;;4918435;29;20322;-56
2021/03/24 08:40:43;;;;;;;;;;;16.50;56.90;;;;;;4917044;29;19907;-55
2021/03/24 08:43:27;;;;;;;;;;;16.50;56.30;;;;;;4918392;29;19907;-56
2021/03/24 08:45:56;;;;;;;;;;;16.60;56.30;;;;;;4918465;29;19907;-55
2021/03/24 08:48:34;;;;;;;;;;;16.60;56.40;;;;;;4918115;29;20381;-53
2021/03/24 08:51:08;;;;;;;;;;;16.60;56.30;;;;;;4917967;29;19953;-56
2021/03/24 08:53:39;;;;;;;;;;;16.60;56.30;;;;;;4918465;29;20503;-57
2021/03/24 08:56:20;;;;;;;;;;;16.70;56.40;;;;;;4918214;29;19907;-57
2021/03/24 08:59:17;;;;;;;;;;;16.70;56.30;;;;;;4917938;29;19907;-57
2021/03/24 09:01:54;;;;;;;;;;;16.70;56.30;;;;;;4876031;29;19915;-56
2021/03/24 09:04:31;;;;;;;;;;;16.70;56.20;;;;;;4918158;29;19967;-56
2021/03/24 09:07:20;;;;;;;;;;;16.70;56.20;;;;;;4918023;29;19966;-54
2021/03/24 09:09:49;;;;;;;;;;;16.70;56.10;;;;;;4907219;29;20017;-55
2021/03/24 09:12:18;;;;;;;;;;;16.80;56.10;;;;;;4918142;29;20382;-57
2021/03/24 09:14:50;;;;;;;;;;;16.70;56.10;;;;;;4917816;29;19918;-56
2021/03/24 09:17:35;;;;;;;;;;;16.60;56.00;;;;;;4917319;29;19907;-54
2021/03/24 09:20:00;;;;;;;;;;;16.80;55.90;;;;;;4916035;29;20417;-56
2021/03/24 09:22:39;;;;;;;;;;;16.80;55.90;;;;;;4916968;29;19907;-55
2021/03/24 09:25:23;;;;;;;;;;;16.90;55.90;;;;;;4917418;29;19911;-56
2021/03/24 09:28:00;;;;;;;;;;;16.90;55.70;;;;;;4917458;29;19947;-54
2021/03/24 09:30:34;;;;;;;;;;;16.90;55.60;;;;;;4917494;29;20382;-56
2021/03/24 09:33:06;;;;;;;;;;;16.80;55.60;;;;;;4917514;29;19911;-55
2021/03/24 09:35:50;;;;;;;;;;;17.00;55.70;;;;;;4917113;29;19907;-57
2021/03/24 09:38:20;;;;;;;;;;;17.10;55.70;;;;;;4917374;29;19907;-56
2021/03/24 09:40:48;;;;;;;;;;;17.10;55.80;;;;;;4917413;29;19914;-55
2021/03/24 09:43:22;;;;;;;;;;;16.80;55.50;;;;;;4917354;29;20006;-56
2021/03/24 09:45:59;;;;;;;;;;;17.10;55.40;;;;;;4917251;29;19907;-58
2021/03/24 09:48:25;;;;;;;;;;;17.10;55.40;;;;;;4916841;29;19998;-57
2021/03/24 09:51:03;;;;;;;;;;;17.00;55.50;;;;;;4917320;29;20397;-57
2021/03/24 09:53:29;;;;;;;;;;;17.10;55.60;;;;;;4917141;29;20338;-54
2021/03/24 09:55:55;;;;;;;;;;;16.90;55.40;;;;;;4917189;29;19914;-55
2021/03/24 09:58:20;;;;;;;;;;;17.20;55.50;;;;;;4917058;29;19906;-56
2021/03/24 10:01:12;;;;;;;;;;;17.20;55.30;;;;;;4917117;29;19938;-56
2021/03/24 10:03:37;;;;;;;;;;;17.30;55.20;;;;;;4916296;29;19911;-55
2021/03/24 10:06:04;;;;;;;;;;;17.10;55.00;;;;;;4916917;29;19907;-55
2021/03/24 10:08:30;;;;;;;;;;;17.10;55.00;;;;;;4916771;29;19911;-56
2021/03/24 10:11:02;;;;;;;;;;;17.40;55.10;;;;;;4916838;29;19922;-56
2021/03/24 10:13:30;;;;;;;;;;;17.40;54.90;;;;;;4917195;29;19919;-56
2021/03/24 10:16:01;;;;;;;;;;;17.10;54.80;;;;;;4916898;29;19907;-56
2021/03/24 10:18:31;;;;;;;;;;;17.50;55.00;;;;;;4917081;29;19945;-56
2021/03/24 10:21:10;;;;;;;;;;;17.50;54.90;;;;;;4899779;29;19914;-56
2021/03/24 10:23:50;;;;;;;;;;;17.50;54.80;;;;;;4916438;29;19907;-55
2021/03/24 10:26:22;;;;;;;;;;;17.50;54.80;;;;;;4916824;29;19907;-55
2021/03/24 10:28:52;;;;;;;;;;;17.50;54.80;;;;;;4916551;29;19921;-55
2021/03/24 10:31:21;;;;;;;;;;;17.50;54.70;;;;;;4916935;29;19907;-55
2021/03/24 10:33:56;;;;;;;;;;;17.60;54.70;;;;;;4916860;29;19907;-56
2021/03/24 10:36:24;;;;;;;;;;;17.60;54.70;;;;;;4916603;29;19908;-55
2021/03/24 10:39:10;;;;;;;;;;;17.60;54.70;;;;;;4916718;29;19930;-55
2021/03/24 10:41:50;;;;;;;;;;;17.60;54.60;;;;;;4899523;29;19911;-55
2021/03/24 10:44:28;;;;;;;;;;;17.70;54.60;;;;;;4916367;29;19907;-55
2021/03/24 10:47:02;;;;;;;;;;;17.70;54.50;;;;;;4916375;29;19933;-56
2021/03/24 10:49:54;;;;;;;;;;;17.70;54.40;;;;;;4916330;29;19915;-56
2021/03/24 10:52:21;;;;;;;;;;;17.70;54.40;;;;;;4893907;29;20578;-56
2021/03/24 10:54:58;;;;;;;;;;;17.60;54.30;;;;;;4916337;29;19907;-56
2021/03/24 10:57:41;;;;;;;;;;;17.80;54.40;;;;;;4899134;29;19983;-56
2021/03/24 11:00:16;;;;;;;;;;;17.80;54.40;;;;;;4916116;29;19907;-56
2021/03/24 11:02:53;;;;;;;;;;;17.80;54.30;;;;;;4899424;29;19907;-55
2021/03/24 11:05:25;;;;;;;;;;;17.90;54.20;;;;;;4916221;29;20424;-55
2021/03/24 11:07:59;;;;;;;;;;;17.90;54.20;;;;;;4916377;29;20362;-56
2021/03/24 11:10:28;;;;;;;;;;;17.90;54.10;;;;;;4915994;29;19915;-56
2021/03/24 11:13:02;;;;;;;;;;;17.90;54.00;;;;;;4916380;29;19919;-56
2021/03/24 11:15:44;;;;;;;;;;;17.90;53.90;;;;;;4918032;29;20277;-56
2021/03/24 11:18:12;;;;;;;;;;;18.00;54.00;;;;;;4919899;29;20362;-55
2021/03/24 11:20:55;;;;;;;;;;;18.00;53.90;;;;;;4920191;29;19907;-56
2021/03/24 11:23:34;;;;;;;;;;;18.00;53.80;;;;;;4938932;29;20478;-55
2021/03/24 11:26:08;;;;;;;;;;;18.10;53.80;;;;;;4939163;29;19915;-56
2021/03/24 11:28:35;;;;;;;;;;;17.90;53.70;;;;;;4938779;29;20001;-57
2021/03/24 11:31:06;;;;;;;;;;;18.00;53.70;;;;;;4938692;29;19906;-55
2021/03/24 11:33:50;;;;;;;;;;;18.10;53.70;;;;;;4938989;29;19907;-53
2021/03/24 11:36:22;;;;;;;;;;;18.00;53.70;;;;;;4938480;29;20342;-55
2021/03/24 11:38:57;;;;;;;;;;;18.00;53.70;;;;;;4938489;29;19930;-56
2021/03/24 11:41:24;;;;;;;;;;;18.10;53.70;;;;;;4938545;29;19907;-56
2021/03/24 11:44:11;;;;;;;;;;;17.90;53.60;;;;;;4938422;29;19910;-56
2021/03/24 11:46:53;;;;;;;;;;;18.10;53.70;;;;;;4938567;29;19914;-54
2021/03/24 11:49:30;;;;;;;;;;;18.10;53.80;;;;;;4938369;29;19915;-55
2021/03/24 11:52:06;;;;;;;;;;;18.10;54.30;;;;;;4937893;29;19907;-53
2021/03/24 11:54:36;;;;;;;;;;;18.10;55.30;;;;;;4938573;29;19906;-55
2021/03/24 11:57:01;;;;;;;;;;;18.10;57.00;;;;;;4938231;29;20516;-54
2021/03/24 11:59:38;;;;;;;;;;;17.90;58.00;;;;;;4938424;29;19906;-55
2021/03/24 12:02:03;;;;;;;;;;;18.10;59.80;;;;;;4938276;29;19914;-56
2021/03/24 12:04:35;;;;;;;;;;;18.00;60.60;;;;;;4938365;29;20313;-58
2021/03/24 12:07:12;;;;;;;;;;;18.00;60.80;;;;;;4938186;29;19914;-59
2021/03/24 12:09:38;;;;;;;;;;;18.10;62.30;;;;;;4938146;29;19923;-58
2021/03/24 12:12:06;;;;;;;;;;;17.90;62.30;;;;;;4937623;29;20327;-57
2021/03/24 12:14:32;;;;;;;;;;;18.00;62.80;;;;;;4938111;29;19913;-60
2021/03/24 12:16:59;;;;;;;;;;;17.80;63.60;;;;;;4937936;29;20429;-60
2021/03/24 12:19:28;;;;;;;;;;;18.70;64.60;;;;;;4938190;29;19941;-59
2021/03/24 12:21:57;;;;;;;;;;;18.10;64.70;;;;;;4937854;29;19914;-58
2021/03/24 12:24:24;;;;;;;;;;;18.60;65.50;;;;;;4938069;29;19907;-58
2021/03/24 12:26:50;;;;;;;;;;;18.00;65.40;;;;;;4937054;29;19917;-58
2021/03/24 12:29:20;;;;;;;;;;;18.00;65.50;;;;;;4937880;29;19914;-58
2021/03/24 12:32:06;;;;;;;;;;;18.10;66.00;;;;;;4937587;29;19907;-58
2021/03/24 12:34:36;;;;;;;;;;;17.70;65.90;;;;;;4937026;29;20011;-60
2021/03/24 12:37:02;;;;;;;;;;;18.30;66.30;;;;;;4937481;29;19914;-59
2021/03/24 12:39:36;;;;;;;;;;;18.30;66.40;;;;;;4937538;29;19906;-57
2021/03/24 12:42:19;;;;;;;;;;;18.40;66.80;;;;;;4920659;29;19914;-57
2021/03/24 12:44:46;;;;;;;;;;;18.40;66.70;;;;;;4937298;29;19917;-59
2021/03/24 12:47:30;;;;;;;;;;;18.40;67.00;;;;;;4937583;29;19942;-60
2021/03/24 12:50:05;;;;;;;;;;;18.40;66.90;;;;;;4937425;29;19922;-59
2021/03/24 12:52:35;;;;;;;;;;;18.40;67.00;;;;;;4936723;29;19906;-59
2021/03/24 12:55:00;;;;;;;;;;;18.40;67.20;;;;;;4937475;29;19963;-59
2021/03/24 12:57:38;;;;;;;;;;;18.30;67.10;;;;;;4937400;29;19915;-60
2021/03/24 13:00:24;;;;;;;;;;;18.50;67.20;;;;;;4937351;29;19981;-60
2021/03/24 13:02:55;;;;;;;;;;;18.50;67.00;;;;;;4936970;29;19914;-60
2021/03/24 13:05:34;;;;;;;;;;;18.50;67.00;;;;;;4936953;29;19978;-59
2021/03/24 13:08:24;;;;;;;;;;;18.50;67.00;;;;;;4937276;29;19921;-60
2021/03/24 13:10:57;;;;;;;;;;;18.50;67.40;;;;;;4936995;29;19966;-59
2021/03/24 13:13:37;;;;;;;;;;;18.50;67.70;;;;;;4934932;28;20318;-59
2021/03/24 13:16:11;;;;;;;;;;;18.50;67.10;;;;;;4936116;29;19907;-59
2021/03/24 13:18:43;;;;;;;;;;;18.50;66.80;;;;;;4936964;29;19938;-60
2021/03/24 13:21:15;;;;;;;;;;;18.50;66.60;;;;;;4936700;29;19929;-60
2021/03/24 13:23:59;;;;;;;;;;;18.20;66.10;;;;;;4936174;29;19906;-59
2021/03/24 13:26:28;;;;;;;;;;;18.50;66.70;;;;;;4919491;29;19906;-58
2021/03/24 13:28:59;;;;;;;;;;;18.50;67.40;;;;;;4936496;29;19959;-56
2021/03/24 13:31:32;;;;;;;;;;;18.50;68.00;;;;;;4936870;29;19910;-57
2021/03/24 13:34:02;;;;;;;;;;;18.50;67.80;;;;;;4919401;29;19993;-60
2021/03/24 13:36:30;;;;;;;;;;;18.50;67.90;;;;;;4919291;29;19914;-61
2021/03/24 13:38:59;;;;;;;;;;;18.20;68.20;;;;;;4935539;29;19907;-59
2021/03/24 13:41:25;;;;;;;;;;;18.50;68.50;;;;;;4936474;29;19910;-60
2021/03/24 13:43:55;;;;;;;;;;;18.50;67.30;;;;;;4936695;29;19993;-58
2021/03/24 13:46:23;;;;;;;;;;;18.50;67.30;;;;;;4936379;29;19907;-58
2021/03/24 13:48:58;;;;;;;;;;;18.50;67.20;;;;;;4936221;29;19914;-59
2021/03/24 13:51:27;;;;;;;;;;;18.50;66.90;;;;;;4936117;29;20002;-59
2021/03/24 13:54:00;;;;;;;;;;;18.50;66.90;;;;;;4936336;29;19914;-59
2021/03/24 13:56:49;;;;;;;;;;;18.30;67.30;;;;;;4936271;29;19931;-60
2021/03/24 13:59:35;;;;;;;;;;;18.50;67.70;;;;;;4936195;29;20266;-59
2021/03/24 14:02:19;;;;;;;;;;;18.50;68.00;;;;;;4936245;29;19906;-60
2021/03/24 14:04:59;;;;;;;;;;;18.60;68.20;;;;;;4917180;29;20323;-56
2021/03/24 14:07:33;;;;;;;;;;;18.50;68.20;;;;;;4917208;29;19911;-58
2021/03/24 14:10:08;;;;;;;;;;;18.30;68.00;;;;;;4916848;29;20034;-56
2021/03/24 14:12:33;;;;;;;;;;;18.60;68.50;;;;;;4916957;29;20010;-59
2021/03/24 14:14:59;;;;;;;;;;;18.60;68.60;;;;;;4917169;29;20002;-58
2021/03/24 14:17:30;;;;;;;;;;;18.60;68.50;;;;;;4916772;29;19918;-59
2021/03/24 14:19:58;;;;;;;;;;;18.70;68.80;;;;;;4916978;29;19911;-57
2021/03/24 14:22:59;;;;;;;;;;;18.70;68.90;;;;;;4916608;29;19935;-57
2021/03/24 14:25:33;;;;;;;;;;;18.70;68.90;;;;;;4821465;29;19913;-58
2021/03/24 14:28:10;;;;;;;;;;;18.80;69.30;;;;;;4902162;29;19907;-59
2021/03/24 14:30:39;;;;;;;;;;;18.80;69.40;;;;;;4916680;29;20330;-59
2021/03/24 14:33:07;;;;;;;;;;;18.80;69.20;;;;;;4916492;29;20006;-57
2021/03/24 14:35:39;;;;;;;;;;;18.80;69.10;;;;;;4899422;29;20006;-55
2021/03/24 14:38:04;;;;;;;;;;;18.80;68.70;;;;;;4916557;29;19911;-57
2021/03/24 14:40:34;;;;;;;;;;;18.60;68.70;;;;;;4916661;29;19933;-56
2021/03/24 14:43:17;;;;;;;;;;;18.80;68.90;;;;;;4916616;29;19921;-56
2021/03/24 14:45:51;;;;;;;;;;;18.80;68.50;;;;;;4916612;29;19907;-54